Time;durP1;ratioP1;P1;durP2;ratioP2;P2;SDS_P1;SDS_P2;PMS_P1;PMS_P2;Temp;Humidity;BMP_temperature;BMP_pressure;BME280_temperature;BME280_humidity;BME280_pressure;Samples;Min_cycle;Max_cycle;Signal;HPM_P1;HPM_P2
2022/05/24 00:00:46;;;;;;;12.65;7.35;;;;;;;9.80;100.00;100258.19;1737552;83;21063;-62
2022/05/24 00:03:13;;;;;;;11.55;7.00;;;;;;;9.86;100.00;100257.91;1737414;82;21009;-62
2022/05/24 00:05:41;;;;;;;12.28;7.67;;;;;;;9.73;100.00;100261.48;1737582;82;21504;-61
2022/05/24 00:08:09;;;;;;;12.53;6.83;;;;;;;10.19;100.00;100263.69;1737495;82;21079;-62
2022/05/24 00:10:40;;;;;;;10.28;7.25;;;;;;;9.88;100.00;100259.95;1737399;82;21051;-61
2022/05/24 00:13:08;;;;;;;12.20;7.58;;;;;;;10.26;100.00;100262.95;1737594;82;21036;-62
2022/05/24 00:15:38;;;;;;;14.45;7.40;;;;;;;10.25;100.00;100265.98;1737345;81;21048;-62
2022/05/24 00:18:19;;;;;;;16.23;6.85;;;;;;;10.40;100.00;100270.87;1737623;83;21071;-62
2022/05/24 00:20:53;;;;;;;11.48;7.72;;;;;;;10.50;100.00;100269.57;1737322;81;21076;-62
2022/05/24 00:23:22;;;;;;;;;;;;;;;10.61;100.00;100268.59;1740317;81;21000;-62
2022/05/24 00:25:53;;;;;;;14.25;7.42;;;;;;;10.56;100.00;100265.84;1737400;83;20385;-62
2022/05/24 00:28:23;;;;;;;12.05;6.90;;;;;;;10.37;100.00;100265.89;1737671;83;21071;-62
2022/05/24 00:30:51;;;;;;;11.57;7.53;;;;;;;10.41;100.00;100263.56;1737519;83;21000;-62
2022/05/24 00:33:44;;;;;;;13.55;7.80;;;;;;;10.37;100.00;100268.47;1761245;81;21583;-61
2022/05/24 00:36:11;;;;;;;14.65;7.95;;;;;;;10.15;100.00;100272.00;1821659;79;21496;-61
2022/05/24 00:38:39;;;;;;;12.28;7.42;;;;;;;10.15;100.00;100265.56;1780358;80;21027;-61
2022/05/24 00:41:28;;;;;;;12.07;7.50;;;;;;;9.85;100.00;100268.25;1821775;79;21007;-61
2022/05/24 00:44:04;;;;;;;13.10;8.60;;;;;;;9.97;100.00;100261.27;1820825;79;21515;-61
2022/05/24 00:46:56;;;;;;;13.62;7.25;;;;;;;9.90;100.00;100260.72;1780231;81;21079;-61
2022/05/24 00:49:49;;;;;;;10.88;7.25;;;;;;;9.98;100.00;100260.38;1821874;79;21015;-61
2022/05/24 00:52:21;;;;;;;13.18;7.60;;;;;;;9.96;100.00;100263.02;1821708;79;21019;-61
2022/05/24 00:54:50;;;;;;;12.90;8.03;;;;;;;9.78;100.00;100264.67;1780752;80;21051;-61
2022/05/24 00:57:37;;;;;;;10.78;7.78;;;;;;;9.73;100.00;100264.06;1821704;78;21015;-61
2022/05/24 01:00:16;;;;;;;12.90;7.12;;;;;;;9.71;100.00;100262.44;1820777;79;21519;-61
2022/05/24 01:02:44;;;;;;;10.82;7.20;;;;;;;9.69;100.00;100261.24;1780229;80;21004;-62
2022/05/24 01:05:19;;;;;;;12.88;7.92;;;;;;;9.59;100.00;100261.23;1821938;78;21027;-61
2022/05/24 01:07:47;;;;;;;11.83;7.70;;;;;;;9.58;100.00;100268.12;1780445;80;21008;-61
2022/05/24 01:10:27;;;;;;;10.53;7.62;;;;;;;9.58;100.00;100269.41;1821565;78;21507;-62
2022/05/24 01:13:11;;;;;;;14.68;7.67;;;;;;;9.59;100.00;100267.66;1821655;78;21020;-61
2022/05/24 01:15:40;;;;;;;12.18;7.40;;;;;;;9.55;100.00;100270.84;1804298;79;21546;-61
2022/05/24 01:18:07;;;;;;;13.90;7.87;;;;;;;9.42;100.00;100265.84;1786884;80;21015;-61
2022/05/24 01:20:34;;;;;;;11.60;7.37;;;;;;;9.34;100.00;100268.73;1761157;80;21046;-61
2022/05/24 01:23:21;;;;;;;13.68;7.95;;;;;;;9.30;100.00;100266.36;1789380;80;21578;-61
2022/05/24 01:26:11;;;;;;;11.80;7.22;;;;;;;9.22;100.00;100272.67;1789661;80;21027;-61
2022/05/24 01:28:58;;;;;;;12.88;7.55;;;;;;;9.26;100.00;100268.22;1789476;80;21039;-60
2022/05/24 01:36:09;;;;;;;13.50;7.17;;;;;;;9.28;100.00;100269.45;1789251;80;21367;-61
2022/05/24 01:36:46;;;;;;;12.20;6.87;;;;;;;7.95;100.00;100273.83;1778724;81;21044;-61
2022/05/24 01:39:13;;;;;;;12.78;7.62;;;;;;;7.81;100.00;100271.31;1759361;81;21555;-61
2022/05/24 01:41:45;;;;;;;12.43;7.62;;;;;;;7.75;100.00;100275.83;1778888;80;21036;-61
2022/05/24 01:44:15;;;;;;;13.53;7.95;;;;;;;7.93;100.00;100279.45;1778977;81;21146;-61
2022/05/24 01:46:46;;;;;;;14.33;7.62;;;;;;;7.69;100.00;100281.18;1778827;81;21027;-61
2022/05/24 01:49:25;;;;;;;14.95;8.18;;;;;;;8.32;100.00;100278.84;1778625;80;20988;-61
2022/05/24 01:51:58;;;;;;;14.53;7.70;;;;;;;8.60;100.00;100284.60;1778908;81;21032;-60
2022/05/24 01:54:28;;;;;;;11.65;7.20;;;;;;;7.79;100.00;100285.08;1778905;81;21075;-61
2022/05/24 01:57:01;;;;;;;13.30;7.72;;;;;;;7.82;100.00;100283.67;1778827;81;21020;-60
2022/05/24 01:59:30;;;;;;;11.75;7.28;;;;;;;7.87;100.00;100279.66;1778809;81;21054;-61
2022/05/24 02:02:00;;;;;;;10.48;7.33;;;;;;;7.76;100.00;100274.47;1759447;81;20997;-61
2022/05/24 02:04:31;;;;;;;12.35;7.62;;;;;;;8.90;100.00;100268.88;1778974;80;20975;-61
2022/05/24 02:07:12;;;;;;;12.65;7.72;;;;;;;9.01;100.00;100274.84;1778886;80;21032;-60
2022/05/24 02:09:44;;;;;;;10.70;7.08;;;;;;;9.08;100.00;100274.95;1778914;81;20984;-61
2022/05/24 02:12:35;;;;;;;12.63;7.50;;;;;;;8.96;100.00;100275.47;1779024;80;21011;-61
2022/05/24 02:15:13;;;;;;;11.00;7.45;;;;;;;8.85;100.00;100279.77;1778624;80;21059;-60
2022/05/24 02:17:56;;;;;;;12.18;7.47;;;;;;;8.71;100.00;100287.19;1778901;80;21027;-61
2022/05/24 02:20:29;;;;;;;11.80;7.58;;;;;;;8.79;100.00;100285.15;1770829;81;21059;-60
2022/05/24 02:22:57;;;;;;;10.70;6.92;;;;;;;8.75;100.00;100299.83;1778847;81;20960;-61
2022/05/24 02:25:29;;;;;;;10.82;7.40;;;;;;;8.73;100.00;100299.52;1778779;81;20993;-60
2022/05/24 02:27:56;;;;;;;10.40;7.20;;;;;;;8.71;100.00;100300.02;1778798;81;21099;-61
2022/05/24 02:30:27;;;;;;;11.15;6.85;;;;;;;8.74;100.00;100294.75;1778662;80;21008;-61
2022/05/24 02:32:55;;;;;;;12.07;7.08;;;;;;;8.68;100.00;100297.56;1781576;80;21091;-61
2022/05/24 02:35:23;;;;;;;10.35;6.58;;;;;;;8.73;100.00;100300.80;1785023;80;21030;-61
2022/05/24 02:37:51;;;;;;;11.35;6.85;;;;;;;8.76;100.00;100306.65;1784311;80;21027;-61
2022/05/24 02:43:05;;;;;;;10.75;6.65;;;;;;;8.72;100.00;100307.66;1784422;80;21024;-60
2022/05/24 02:45:33;;;;;;;8.83;6.37;;;;;;;8.78;100.00;100302.75;1784336;80;21019;-60
2022/05/24 02:48:00;;;;;;;10.48;6.85;;;;;;;8.67;100.00;100304.89;1784444;80;21080;-60
2022/05/24 02:50:28;;;;;;;13.08;7.10;;;;;;;8.50;100.00;100301.70;1784675;80;21007;-61
2022/05/24 02:52:55;;;;;;;10.38;6.92;;;;;;;7.85;100.00;100304.50;1784588;80;21554;-60
2022/05/24 02:55:24;;;;;;;11.93;7.20;;;;;;;8.57;100.00;100313.38;1784314;80;21058;-60
2022/05/24 02:57:52;;;;;;;9.60;7.03;;;;;;;8.17;100.00;100304.60;1784654;80;21492;-60
2022/05/24 03:00:23;;;;;;;9.45;6.70;;;;;;;8.57;100.00;100314.66;1784393;80;21062;-61
2022/05/24 03:02:52;;;;;;;12.95;7.10;;;;;;;8.29;100.00;100309.72;1784796;80;21007;-60
2022/05/24 03:05:21;;;;;;;11.10;6.95;;;;;;;9.23;100.00;100311.57;1784514;80;21051;-61
2022/05/24 03:10:35;;;;;;;8.63;6.53;;;;;;;9.80;100.00;100323.28;1784455;80;21035;-60
2022/05/24 03:15:49;;;;;;;16.90;7.58;;;;;;;9.53;100.00;100329.59;1784377;80;21098;-60
2022/05/24 03:18:19;;;;;;;13.50;7.45;;;;;;;9.73;100.00;100324.47;1784415;80;21079;-60
2022/05/24 03:20:46;;;;;;;10.30;6.65;;;;;;;10.00;100.00;100321.58;1784537;80;20988;-61
2022/05/24 03:23:16;;;;;;;10.68;6.67;;;;;;;10.19;100.00;100328.00;1784336;80;21519;-61
2022/05/24 03:25:44;;;;;;;11.43;7.50;;;;;;;10.36;100.00;100326.82;1784593;80;21068;-61
2022/05/24 03:28:11;;;;;;;13.22;7.25;;;;;;;10.31;100.00;100327.47;1784281;80;21024;-61
2022/05/24 03:30:44;;;;;;;13.10;7.65;;;;;;;10.61;100.00;100331.65;1784533;80;21531;-61
2022/05/24 03:33:12;;;;;;;12.50;7.47;;;;;;;10.75;100.00;100324.56;1781216;80;21050;-61
2022/05/24 03:35:40;;;;;;;11.38;7.15;;;;;;;10.23;100.00;100330.36;1778673;80;21070;-61
2022/05/24 03:38:08;;;;;;;14.95;7.50;;;;;;;10.71;100.00;100325.62;1779032;80;21075;-61
2022/05/24 03:40:36;;;;;;;12.25;7.53;;;;;;;10.90;100.00;100331.17;1778610;81;21064;-61
2022/05/24 03:43:12;;;;;;;12.75;7.47;;;;;;;10.15;100.00;100335.47;1778865;81;21035;-61
2022/05/24 03:45:39;;;;;;;9.65;6.85;;;;;;;10.71;100.00;100333.80;1779026;80;20988;-61
2022/05/24 03:48:08;;;;;;;13.32;7.42;;;;;;;11.40;100.00;100329.97;1779239;80;21457;-61
2022/05/24 03:50:35;;;;;;;14.20;7.42;;;;;;;11.35;100.00;100328.52;1778784;81;21507;-61
2022/05/24 03:53:03;;;;;;;11.88;7.28;;;;;;;11.33;100.00;100328.59;1778766;80;21067;-61
2022/05/24 03:55:30;;;;;;;12.37;7.00;;;;;;;10.56;100.00;100333.62;1778988;81;21039;-61
2022/05/24 03:58:02;;;;;;;11.63;6.92;;;;;;;11.24;100.00;100331.64;1778640;80;21059;-61
2022/05/24 04:00:34;;;;;;;12.75;7.20;;;;;;;11.59;100.00;100332.89;1778893;80;21007;-61
2022/05/24 04:03:04;;;;;;;13.10;7.55;;;;;;;11.77;100.00;100336.28;1779018;81;21559;-61
2022/05/24 04:05:33;;;;;;;13.78;7.10;;;;;;;11.89;100.00;100347.74;1779030;81;21491;-61
2022/05/24 04:08:01;;;;;;;12.33;6.62;;;;;;;11.04;100.00;100345.50;1778900;80;21015;-61
2022/05/24 04:10:31;;;;;;;10.70;7.03;;;;;;;11.11;100.00;100353.75;1778661;81;21040;-61
2022/05/24 04:13:00;;;;;;;12.33;7.20;;;;;;;11.15;100.00;100347.11;1778879;80;21036;-62
2022/05/24 04:15:29;;;;;;;12.40;7.20;;;;;;;11.97;100.00;100351.58;1778591;80;21007;-61
2022/05/24 04:17:57;;;;;;;12.93;7.42;;;;;;;11.57;100.00;100349.72;1779036;81;21043;-61
2022/05/24 04:20:27;;;;;;;14.68;7.40;;;;;;;11.61;100.00;100349.12;1778586;80;21074;-61
2022/05/24 04:22:56;;;;;;;12.85;7.83;;;;;;;11.70;100.00;100349.95;1778843;81;20995;-61
2022/05/24 04:25:25;;;;;;;13.98;8.30;;;;;;;11.84;100.00;100349.25;1778790;80;21046;-61
2022/05/24 04:27:54;;;;;;;14.93;8.38;;;;;;;12.05;100.00;100349.89;1779032;80;21499;-62
2022/05/24 04:30:23;;;;;;;16.73;8.58;;;;;;;12.28;100.00;100345.25;1778970;80;21071;-61
2022/05/24 04:32:51;;;;;;;17.92;9.30;;;;;;;12.95;100.00;100345.39;1780153;80;21051;-62
2022/05/24 04:35:18;;;;;;;15.60;9.38;;;;;;;12.92;100.00;100345.58;1768003;80;21550;-61
2022/05/24 04:37:45;;;;;;;15.43;9.28;;;;;;;12.68;100.00;100339.21;1757878;80;21472;-62
2022/05/24 04:40:15;;;;;;;15.58;9.55;;;;;;;13.08;100.00;100335.21;1764325;80;21047;-61
2022/05/24 04:42:43;;;;;;;15.40;9.45;;;;;;;13.32;100.00;100337.31;1755143;80;21082;-62
2022/05/24 04:45:15;;;;;;;18.80;9.55;;;;;;;13.34;100.00;100338.91;1756070;81;20961;-61
2022/05/24 04:47:42;;;;;;;17.92;9.30;;;;;;;13.39;100.00;100338.63;1761669;80;21028;-62
2022/05/24 04:50:12;;;;;;;14.93;8.70;;;;;;;13.49;100.00;100339.75;1754225;81;20998;-61
2022/05/24 04:52:42;;;;;;;15.23;8.23;;;;;;;13.99;99.76;100335.03;1762711;80;21015;-61
2022/05/24 04:55:14;;;;;;;16.48;8.58;;;;;;;13.85;98.06;100345.40;1759877;80;20948;-61
2022/05/24 04:57:41;;;;;;;13.75;8.58;;;;;;;14.06;95.83;100347.98;1761643;80;20931;-62
2022/05/24 05:00:14;;;;;;;11.85;6.87;;;;;;;14.26;94.61;100349.35;1758350;80;21050;-62
2022/05/24 05:02:44;;;;;;;10.95;7.00;;;;;;;14.71;90.57;100344.81;1757180;80;21060;-60
2022/05/24 05:05:13;;;;;;;15.23;7.37;;;;;;;14.39;87.74;100348.11;1761782;80;21051;-62
2022/05/24 05:07:42;;;;;;;14.23;7.42;;;;;;;14.67;86.56;100351.12;1754519;81;20996;-62
2022/05/24 05:10:13;;;;;;;12.18;6.80;;;;;;;14.91;86.43;100347.42;1759069;80;21011;-62
2022/05/24 05:12:45;;;;;;;10.90;6.75;;;;;;;14.91;87.47;100350.02;1764088;80;20977;-61
2022/05/24 05:15:14;;;;;;;12.98;6.90;;;;;;;15.08;87.69;100354.56;1759337;80;21050;-62
2022/05/24 05:17:42;;;;;;;12.18;6.50;;;;;;;15.27;87.67;100358.92;1761770;80;21007;-62
2022/05/24 05:20:11;;;;;;;15.38;6.92;;;;;;;15.89;82.04;100365.19;1756330;80;20996;-62
2022/05/24 05:22:39;;;;;;;12.85;7.30;;;;;;;16.06;80.80;100366.61;1756749;81;20992;-62
2022/05/24 05:25:09;;;;;;;12.03;6.90;;;;;;;16.48;78.59;100367.97;1758362;80;21016;-62
2022/05/24 05:27:37;;;;;;;14.25;6.95;;;;;;;16.45;76.32;100363.48;1757937;80;21027;-62
2022/05/24 05:32:52;;;;;;;12.37;6.40;;;;;;;16.41;73.87;100369.36;1762042;80;21078;-61
2022/05/24 05:35:19;;;;;;;11.25;6.00;;;;;;;16.72;73.64;100373.18;1759709;80;20992;-62
2022/05/24 05:37:46;;;;;;;12.05;6.37;;;;;;;16.61;70.70;100380.94;1759571;80;21044;-62
2022/05/24 05:40:15;;;;;;;10.15;5.58;;;;;;;16.87;71.18;100377.80;1758632;80;21083;-61
2022/05/24 05:42:43;;;;;;;9.95;5.80;;;;;;;16.96;71.26;100377.11;1769461;80;21019;-61
2022/05/24 05:45:12;;;;;;;10.72;6.17;;;;;;;17.58;69.85;100369.49;1758207;80;21031;-62
2022/05/24 05:47:40;;;;;;;11.05;5.50;;;;;;;17.46;71.23;100378.22;1759961;80;21453;-62
2022/05/24 05:50:09;;;;;;;10.80;4.90;;;;;;;17.18;68.20;100386.77;1738918;80;21026;-60
2022/05/24 05:52:36;;;;;;;11.22;4.00;;;;;;;17.47;64.52;100380.34;1759133;80;20980;-60
2022/05/24 05:55:06;;;;;;;7.37;4.05;;;;;;;17.58;64.50;100373.88;1762760;80;20961;-61
2022/05/24 05:57:34;;;;;;;9.65;3.72;;;;;;;17.66;63.89;100382.38;1759429;80;20972;-61
2022/05/24 06:00:01;;;;;;;7.35;3.83;;;;;;;18.56;61.57;100374.56;1756818;81;21059;-62
2022/05/24 06:02:28;;;;;;;7.30;4.30;;;;;;;18.20;59.93;100374.72;1756309;81;21004;-62
2022/05/24 06:04:56;;;;;;;8.40;4.00;;;;;;;18.36;60.13;100367.84;1757371;80;21020;-61
2022/05/24 06:07:23;;;;;;;12.28;4.33;;;;;;;18.55;62.19;100365.92;1755646;81;20972;-61
2022/05/24 06:09:53;;;;;;;8.63;3.92;;;;;;;18.62;61.51;100372.77;1764072;80;20988;-61
2022/05/24 06:12:20;;;;;;;7.45;3.75;;;;;;;18.70;59.79;100376.89;1764686;81;21512;-62
2022/05/24 06:14:49;;;;;;;4.30;3.47;;;;;;;18.74;55.12;100382.69;1771470;81;21098;-61
2022/05/24 06:17:19;;;;;;;8.13;3.65;;;;;;;18.79;57.24;100380.08;1768291;80;21062;-61
2022/05/24 06:19:46;;;;;;;7.17;3.58;;;;;;;18.93;58.47;100375.05;1755503;81;21008;-61
2022/05/24 06:22:13;;;;;;;6.65;3.42;;;;;;;19.14;58.43;100376.39;1757052;81;21102;-61
2022/05/24 06:24:40;;;;;;;6.75;3.50;;;;;;;19.19;54.24;100383.84;1761205;80;21539;-62
2022/05/24 06:27:07;;;;;;;4.85;3.00;;;;;;;19.77;53.01;100382.10;1765290;80;21056;-62
2022/05/24 06:29:36;;;;;;;5.30;3.10;;;;;;;19.13;51.53;100381.73;1761675;80;21043;-62
2022/05/24 06:32:05;;;;;;;5.25;2.77;;;;;;;19.81;48.04;100382.19;1758826;80;21008;-62
2022/05/24 06:34:32;;;;;;;4.85;3.20;;;;;;;19.32;51.77;100386.25;1753189;81;21065;-62
2022/05/24 06:36:59;;;;;;;7.40;3.25;;;;;;;19.54;52.29;100378.77;1754768;81;21504;-61
2022/05/24 06:39:27;;;;;;;5.08;2.77;;;;;;;19.68;49.56;100382.34;1756058;81;21003;-62
2022/05/24 06:41:54;;;;;;;5.62;2.83;;;;;;;19.76;51.07;100388.27;1768623;81;20924;-61
2022/05/24 06:44:23;;;;;;;4.72;2.80;;;;;;;20.47;50.27;100381.70;1777540;80;21090;-62
2022/05/24 06:46:51;;;;;;;4.10;2.98;;;;;;;20.08;49.67;100393.84;1777854;81;21102;-62
2022/05/24 06:49:19;;;;;;;5.47;3.05;;;;;;;20.27;46.13;100399.61;1778061;81;21102;-62
2022/05/24 06:51:46;;;;;;;8.18;3.02;;;;;;;19.99;43.25;100391.06;1777668;80;21032;-61
2022/05/24 06:54:13;;;;;;;4.95;3.00;;;;;;;20.11;43.91;100394.88;1778123;80;21070;-62
2022/05/24 06:56:40;;;;;;;4.67;2.80;;;;;;;20.46;43.96;100393.14;1777590;80;21078;-62
2022/05/24 07:04:39;;;;;;;7.30;2.85;;;;;;;19.91;46.34;100391.34;1777806;81;21110;-61
2022/05/24 07:07:07;;;;;;;4.37;2.80;;;;;;;20.09;45.37;100391.56;1778113;80;21480;-61
2022/05/24 07:09:37;;;;;;;6.97;2.65;;;;;;;20.15;45.03;100381.89;1777723;81;21035;-60
2022/05/24 07:12:07;;;;;;;4.15;2.50;;;;;;;20.67;47.32;100390.44;1777986;80;21051;-61
2022/05/24 07:14:36;;;;;;;4.90;2.55;;;;;;;21.24;45.83;100389.27;1777882;81;21555;-61
2022/05/24 07:17:04;;;;;;;5.50;2.80;;;;;;;21.61;44.16;100387.22;1777951;81;21102;-61
2022/05/24 07:19:32;;;;;;;6.40;2.65;;;;;;;21.55;41.14;100391.72;1777761;81;21090;-61
2022/05/24 07:21:59;;;;;;;4.08;2.72;;;;;;;21.88;41.54;100387.77;1777744;80;21055;-60
2022/05/24 07:24:28;;;;;;;5.87;2.87;;;;;;;22.09;41.02;100384.91;1778115;81;21051;-61
2022/05/24 07:26:56;;;;;;;6.92;3.25;;;;;;;22.24;40.76;100384.45;1765694;81;20960;-61
2022/05/24 07:29:24;;;;;;;4.65;2.90;;;;;;;22.45;41.14;100381.09;1755253;80;20957;-61
2022/05/24 07:31:53;;;;;;;5.47;3.10;;;;;;;21.64;42.92;100383.52;1755347;81;21062;-61
2022/05/24 07:34:20;;;;;;;6.53;3.15;;;;;;;21.24;42.90;100386.65;1748523;81;21096;-61
2022/05/24 07:36:48;;;;;;;6.87;3.25;;;;;;;21.10;43.82;100387.89;1732587;82;20997;-61
2022/05/24 07:39:15;;;;;;;6.12;3.20;;;;;;;21.48;43.28;100391.95;1755460;81;21020;-61
2022/05/24 07:47:14;;;;;;;5.62;2.92;;;;;;;22.29;42.07;100383.55;1754128;81;21054;-61
2022/05/24 07:49:41;;;;;;;6.65;3.47;;;;;;;21.73;43.47;100382.15;1753995;81;20993;-61
2022/05/24 07:52:10;;;;;;;7.05;3.35;;;;;;;21.55;43.56;100378.63;1757953;81;21020;-61
2022/05/24 07:54:39;;;;;;;5.00;3.20;;;;;;;21.40;43.90;100381.66;1755779;81;21087;-62
2022/05/24 07:57:10;;;;;;;6.37;3.30;;;;;;;21.81;42.02;100383.57;1754719;81;21027;-62
2022/05/24 07:59:42;;;;;;;4.92;3.40;;;;;;;21.39;43.85;100379.17;1732431;82;21028;-62
2022/05/24 08:02:08;;;;;;;6.92;3.33;;;;;;;21.61;43.26;100379.36;1755044;80;21019;-61
2022/05/24 08:04:35;;;;;;;6.83;3.55;;;;;;;21.87;41.33;100370.88;1751832;81;21434;-60
2022/05/24 08:07:05;;;;;;;5.85;3.30;;;;;;;21.65;43.01;100372.05;1731791;82;20970;-60
2022/05/24 08:09:33;;;;;;;6.20;3.35;;;;;;;22.02;42.30;100378.61;1755058;81;21004;-61
2022/05/24 08:12:00;;;;;;;5.05;3.30;;;;;;;22.09;42.70;100372.30;1731464;82;21001;-60
2022/05/24 08:14:27;;;;;;;7.65;3.25;;;;;;;22.60;40.75;100363.86;1692599;83;21080;-60
2022/05/24 08:16:55;;;;;;;5.17;3.00;;;;;;;22.17;40.35;100382.87;1699559;83;21016;-61
2022/05/24 08:19:22;;;;;;;4.87;3.30;;;;;;;22.27;40.33;100374.50;1695807;83;21051;-60
2022/05/24 08:21:50;;;;;;;6.10;3.50;;;;;;;22.44;39.51;100373.37;1691466;83;21056;-62
2022/05/24 08:24:17;;;;;;;5.25;3.33;;;;;;;22.10;40.64;100377.86;1695661;83;21073;-61
2022/05/24 08:26:45;;;;;;;5.35;3.15;;;;;;;22.47;40.70;100378.33;1695604;83;21536;-61
2022/05/24 08:29:12;;;;;;;5.20;3.12;;;;;;;22.60;40.02;100376.97;1691446;85;21016;-61
2022/05/24 08:31:40;;;;;;;3.90;3.00;;;;;;;22.53;41.07;100369.37;1699805;83;21006;-61
2022/05/24 08:34:07;;;;;;;8.13;3.37;;;;;;;22.26;38.88;100370.71;1724616;82;20992;-62
2022/05/24 08:36:35;;;;;;;8.23;3.15;;;;;;;23.48;36.79;100364.42;1704753;83;21538;-61
2022/05/24 08:39:04;;;;;;;4.87;3.00;;;;;;;23.90;40.23;100364.16;1696926;83;21009;-61
2022/05/24 08:42:03;;;;;;;4.70;3.25;;;;;;;23.69;38.25;100365.86;1697017;83;21500;-61
2022/05/24 08:50:15;;;;;;;3.83;2.98;;;;;;;23.04;37.10;100361.82;1643836;83;21039;-62
2022/05/24 08:52:47;;;;;;;5.42;3.35;;;;;;;23.29;37.94;100363.30;1701647;83;21047;-61
2022/05/24 08:55:16;;;;;;;5.70;4.00;;;;;;;23.22;37.76;100366.23;1703863;83;21018;-62
2022/05/24 08:57:54;;;;;;;5.65;3.80;;;;;;;22.96;37.58;100362.54;1686576;83;21039;-61
2022/05/24 09:00:38;;;;;;;5.25;3.42;;;;;;;22.53;36.20;100377.73;1693779;83;21039;-62
2022/05/24 09:03:08;;;;;;;4.67;3.75;;;;;;;22.87;37.29;100362.62;1704622;83;20984;-61
2022/05/24 09:05:48;;;;;;;7.58;3.90;;;;;;;22.96;39.03;100357.29;1700754;83;21028;-61
2022/05/24 09:08:33;;;;;;;7.47;3.80;;;;;;;22.67;37.47;100365.41;1697454;83;21085;-62
2022/05/24 09:11:23;;;;;;;6.78;4.33;;;;;;;22.68;38.33;100366.23;1697861;84;21072;-61
2022/05/24 09:13:59;;;;;;;5.62;4.03;;;;;;;22.14;37.42;100364.34;1695866;85;21037;-60
2022/05/24 09:16:37;;;;;;;5.75;4.20;;;;;;;21.93;37.45;100367.67;1695411;85;21113;-61
2022/05/24 09:19:21;;;;;;;7.83;4.40;;;;;;;22.17;37.55;100368.45;1711465;84;21024;-61
2022/05/24 09:21:53;;;;;;;6.50;4.50;;;;;;;22.64;37.80;100364.39;1711181;84;21079;-61
2022/05/24 09:24:46;;;;;;;8.75;4.90;;;;;;;23.10;37.57;100359.08;1711342;83;21039;-61
2022/05/24 09:27:23;;;;;;;10.23;4.70;;;;;;;23.28;36.35;100367.75;1709522;84;21036;-61
2022/05/24 09:30:08;;;;;;;6.95;4.60;;;;;;;23.65;35.67;100357.95;1711055;84;20996;-63
2022/05/24 09:32:42;;;;;;;6.92;4.50;;;;;;;23.99;36.81;100357.97;1710702;84;21072;-61
2022/05/24 09:35:23;;;;;;;5.72;4.67;;;;;;;24.10;36.18;100369.50;1708625;83;21063;-61
2022/05/24 09:38:16;;;;;;;7.05;4.30;;;;;;;23.82;34.32;100364.95;1707255;84;21536;-61
2022/05/24 09:40:54;;;;;;;6.85;4.58;;;;;;;23.05;36.88;100355.58;1707188;84;21055;-61
2022/05/24 09:43:35;;;;;;;8.75;4.70;;;;;;;23.12;38.84;100359.75;1681036;84;21063;-60
2022/05/24 09:46:09;;;;;;;11.93;5.00;;;;;;;23.37;38.86;100364.67;1707274;84;21535;-61
2022/05/24 09:48:52;;;;;;;7.47;4.85;;;;;;;22.96;36.21;100362.54;1707351;84;21036;-61
2022/05/24 09:51:25;;;;;;;5.53;3.80;;;;;;;22.97;36.47;100366.83;1707347;84;21035;-61
2022/05/24 09:53:55;;;;;;;6.42;4.37;;;;;;;23.05;37.89;100355.58;1707239;84;21139;-61
2022/05/24 09:56:30;;;;;;;8.68;4.83;;;;;;;23.51;38.43;100364.10;1707220;84;21012;-61
2022/05/24 09:59:08;;;;;;;8.63;4.62;;;;;;;23.51;38.12;100356.72;1707135;84;21090;-61
2022/05/24 10:01:49;;;;;;;7.42;4.92;;;;;;;23.57;39.18;100350.34;1681632;84;21033;-61
2022/05/24 10:04:36;;;;;;;10.93;5.22;;;;;;;23.80;38.52;100357.71;1705891;84;21079;-61
2022/05/24 10:07:24;;;;;;;8.95;4.95;;;;;;;23.89;37.84;100348.89;1707251;84;21051;-61
2022/05/24 10:10:12;;;;;;;8.75;5.40;;;;;;;23.94;37.33;100351.03;1706625;84;21000;-61
2022/05/24 10:12:57;;;;;;;8.55;4.90;;;;;;;24.15;36.89;100359.84;1706914;84;21016;-61
2022/05/24 10:15:39;;;;;;;10.80;4.92;;;;;;;23.98;39.14;100345.30;1706742;84;21591;-61
2022/05/24 10:18:47;;;;;;;7.78;4.17;;;;;;;24.38;38.67;100350.84;1706908;84;21063;-61
2022/05/24 10:21:31;;;;;;;7.60;3.95;;;;;;;24.48;37.83;100349.39;1706956;84;21509;-60
2022/05/24 10:24:31;;;;;;;7.60;4.00;;;;;;;23.82;36.91;100357.56;1697981;84;21579;-61
2022/05/24 10:27:13;;;;;;;5.97;4.00;;;;;;;23.32;36.50;100356.45;1706830;84;21109;-60
2022/05/24 10:29:49;;;;;;;7.20;4.05;;;;;;;23.23;38.18;100351.61;1706197;84;21044;-61
2022/05/24 10:39:02;;;;;;;5.62;3.25;;;;;;;24.13;36.45;100352.10;1707076;84;21517;-62
2022/05/24 10:41:59;;;;;;;5.12;3.30;;;;;;;24.79;38.65;100356.19;1707133;84;21516;-61
2022/05/24 10:44:43;;;;;;;6.70;3.85;;;;;;;24.56;37.04;100366.54;1707269;84;21036;-61
2022/05/24 10:47:44;;;;;;;8.15;3.77;;;;;;;23.75;37.66;100360.78;1707294;84;21103;-61
2022/05/24 10:50:20;;;;;;;8.63;4.28;;;;;;;23.97;36.01;100356.81;1706380;84;21048;-61
2022/05/24 10:53:04;;;;;;;5.85;3.20;;;;;;;24.04;37.23;100367.51;1706079;84;21091;-60
2022/05/24 10:55:39;;;;;;;4.60;2.87;;;;;;;24.16;38.09;100362.28;1707209;84;21123;-61
2022/05/24 10:58:13;;;;;;;4.90;3.00;;;;;;;23.98;39.59;100361.57;1707057;84;21052;-61
2022/05/24 11:00:54;;;;;;;7.92;3.20;;;;;;;24.39;38.69;100359.90;1707187;84;21005;-61
2022/05/24 11:03:32;;;;;;;4.15;2.90;;;;;;;24.04;38.11;100362.25;1706899;84;21103;-62
2022/05/24 11:06:25;;;;;;;6.87;3.27;;;;;;;23.58;37.47;100361.67;1707194;84;21088;-61
2022/05/24 11:09:04;;;;;;;6.58;2.80;;;;;;;22.78;39.86;100359.92;1707125;84;21080;-61
2022/05/24 11:11:54;;;;;;;4.42;2.87;;;;;;;24.34;38.13;100355.60;1707192;84;21074;-61
2022/05/24 11:14:29;;;;;;;2.98;2.58;;;;;;;24.75;40.56;100357.50;1680822;84;21048;-61
2022/05/24 11:16:57;;;;;;;7.87;3.08;;;;;;;24.90;37.17;100352.39;1706585;84;21075;-61
2022/05/24 11:19:38;;;;;;;4.58;2.60;;;;;;;24.79;36.47;100358.82;1707164;84;21024;-61
2022/05/24 11:22:39;;;;;;;6.25;2.50;;;;;;;24.70;38.21;100364.58;1707157;84;21095;-62
2022/05/24 11:25:38;;;;;;;3.75;2.80;;;;;;;24.11;36.07;100371.66;1706809;84;21548;-61
2022/05/24 11:28:14;;;;;;;4.75;2.75;;;;;;;23.97;37.36;100352.86;1707178;84;21544;-61
2022/05/24 11:30:42;;;;;;;4.12;2.50;;;;;;;23.61;37.19;100352.17;1706009;84;21529;-60
2022/05/24 11:33:14;;;;;;;4.97;2.65;;;;;;;24.07;38.04;100354.06;1707201;84;21080;-61
2022/05/24 11:35:52;;;;;;;7.15;2.60;;;;;;;23.96;35.20;100352.52;1706794;84;21036;-60
2022/05/24 11:38:31;;;;;;;6.37;2.70;;;;;;;24.40;34.29;100352.83;1707049;84;21052;-61
2022/05/24 11:41:07;;;;;;;4.10;2.55;;;;;;;24.82;35.25;100355.87;1707042;84;21040;-62
2022/05/24 11:43:39;;;;;;;3.77;2.80;;;;;;;25.23;34.86;100347.16;1706743;84;21087;-62
2022/05/24 11:46:37;;;;;;;5.67;3.12;;;;;;;25.04;34.53;100361.45;1706868;84;21037;-61
2022/05/24 11:49:12;;;;;;;5.25;2.95;;;;;;;24.87;35.46;100358.82;1707068;84;21083;-62
2022/05/24 11:51:49;;;;;;;4.92;2.92;;;;;;;24.98;35.29;100349.28;1706978;84;21103;-62
2022/05/24 11:54:24;;;;;;;8.33;2.87;;;;;;;24.22;36.64;100356.89;1707191;84;21503;-62
2022/05/24 11:57:09;;;;;;;7.80;3.65;;;;;;;23.97;37.49;100353.36;1706877;84;21056;-61
2022/05/24 11:59:46;;;;;;;6.80;2.95;;;;;;;24.20;36.29;100353.09;1707198;84;21017;-61
2022/05/24 12:02:33;;;;;;;4.03;2.95;;;;;;;24.37;36.72;100350.03;1707270;84;21043;-61
2022/05/24 12:08:35;;;;;;;8.95;3.05;;;;;;;25.55;34.88;100357.62;1707010;84;21326;-61
2022/05/24 12:11:15;;;;;;;3.47;2.77;;;;;;;26.07;35.85;100342.28;1706488;84;21036;-61
2022/05/24 12:13:54;;;;;;;4.50;2.77;;;;;;;26.22;33.70;100343.67;1707241;84;21032;-61
2022/05/24 12:16:46;;;;;;;6.97;2.83;;;;;;;26.76;35.74;100341.03;1707178;84;21579;-61
2022/05/24 12:19:43;;;;;;;5.08;2.80;;;;;;;26.48;34.79;100335.43;1707241;84;21067;-61
2022/05/24 12:22:14;;;;;;;4.00;2.80;;;;;;;26.48;34.79;100335.43;1692305;84;21047;-61
2022/05/24 12:24:47;;;;;;;7.70;3.90;;;;;;;26.05;36.10;100334.53;1706738;84;21064;-61
2022/05/24 12:27:22;;;;;;;6.58;3.70;;;;;;;25.17;35.22;100338.89;1699749;84;21476;-61